Time,TemperatureF,DewpointF,PressureIn,WindDirection,WindDirectionDegrees,WindSpeedMPH,WindSpeedGustMPH,Humidity,HourlyPrecipIn,Conditions,Clouds,dailyrainin,SoftwareType,DateUTC
2013-06-09 00:00:00,55.6,43.6,30.22,WNW,299,0.0,0.0,64,0.00,CLR,,0.00,WeatherDisplay:10.37,2013-06-09 08:00:00,
2013-06-09 00:09:00,55.0,43.1,30.21,NNW,335,0.0,0.0,64,0.00,CLR,,0.00,WeatherDisplay:10.37,2013-06-09 08:09:00,
2013-06-09 00:15:00,54.9,43.3,30.22,North,353,0.0,0.0,65,0.00,CLR,,0.00,WeatherDisplay:10.37,2013-06-09 08:15:00,
2013-06-09 00:24:00,54.5,43.0,30.22,North,10,0.0,0.0,65,0.00,CLR,,0.00,WeatherDisplay:10.37,2013-06-09 08:24:00,
2013-06-09 00:30:00,54.3,42.8,30.22,NNE,18,0.0,0.0,65,0.00,CLR,,0.00,WeatherDisplay:10.37,2013-06-09 08:30:00,
2013-06-09 00:39:00,54.1,42.6,30.22,North,5,0.0,0.0,65,0.00,CLR,,0.00,WeatherDisplay:10.37,2013-06-09 08:39:00,
2013-06-09 00:45:00,54.0,43.6,30.22,NNE,14,0.0,0.0,68,0.00,CLR,,0.00,WeatherDisplay:10.37,2013-06-09 08:45:00,
2013-06-09 00:54:00,53.3,42.6,30.22,NNE,21,0.0,0.0,67,0.00,CLR,,0.00,WeatherDisplay:10.37,2013-06-09 08:54:00,
2013-06-09 01:00:00,53.2,42.9,30.22,NNE,16,0.0,0.0,68,0.00,CLR,,0.00,WeatherDisplay:10.37,2013-06-09 09:00:00,
2013-06-09 01:15:00,52.9,42.2,30.23,North,5,0.0,0.0,67,0.00,CLR,,0.00,WeatherDisplay:10.37,2013-06-09 09:15:00,
2013-06-09 01:25:00,52.0,42.5,30.23,North,8,0.0,0.0,70,0.00,CLR,,0.00,WeatherDisplay:10.37,2013-06-09 09:25:00,
2013-06-09 01:30:00,51.7,42.3,30.23,North,10,0.0,0.0,70,0.00,CLR,,0.00,WeatherDisplay:10.37,2013-06-09 09:30:00,
2013-06-09 01:40:00,51.7,39.0,30.23,West,277,0.0,0.0,62,0.00,CLR,,0.00,WeatherDisplay:10.37,2013-06-09 09:40:00,
2013-06-09 01:45:00,52.2,39.9,30.23,WSW,254,0.0,0.0,63,0.00,CLR,,0.00,WeatherDisplay:10.37,2013-06-09 09:45:00,
2013-06-09 01:55:00,52.7,40.0,30.24,West,268,0.0,0.0,62,0.00,CLR,,0.00,WeatherDisplay:10.37,2013-06-09 09:55:00,
2013-06-09 02:00:00,52.9,39.8,30.24,West,268,0.0,0.0,61,0.00,CLR,,0.00,WeatherDisplay:10.37,2013-06-09 10:00:00,
2013-06-09 02:10:00,53.2,40.1,30.24,West,275,0.0,0.0,61,0.00,CLR,,0.00,WeatherDisplay:10.37,2013-06-09 10:10:00,
2013-06-09 02:15:00,53.2,39.7,30.24,West,281,0.0,0.0,60,0.00,CLR,,0.00,WeatherDisplay:10.37,2013-06-09 10:15:00,
2013-06-09 02:25:00,53.4,39.9,30.24,West,268,0.0,0.0,60,0.00,CLR,,0.00,WeatherDisplay:10.37,2013-06-09 10:25:00,
2013-06-09 02:30:00,53.8,39.8,30.24,West,265,0.0,0.0,59,0.00,CLR,,0.00,WeatherDisplay:10.37,2013-06-09 10:30:00,
2013-06-09 02:40:00,53.8,39.8,30.24,West,264,0.0,0.0,59,0.00,CLR,,0.00,WeatherDisplay:10.37,2013-06-09 10:40:00,
2013-06-09 02:45:00,53.8,40.2,30.24,West,266,0.0,0.0,60,0.00,CLR,,0.00,WeatherDisplay:10.37,2013-06-09 10:45:00,
2013-06-09 02:55:00,53.5,40.0,30.24,West,264,0.0,0.0,60,0.00,CLR,,0.00,WeatherDisplay:10.37,2013-06-09 10:55:00,
2013-06-09 03:00:00,53.4,39.4,30.25,WSW,258,0.0,0.0,59,0.00,CLR,,0.00,WeatherDisplay:10.37,2013-06-09 11:00:00,
2013-06-09 03:05:00,53.2,39.7,30.24,West,261,0.0,0.0,60,0.00,CLR,,0.00,WeatherDisplay:10.37,2013-06-09 11:05:00,
2013-06-09 03:10:00,53.1,39.6,30.24,West,267,0.0,0.0,60,0.00,CLR,,0.00,WeatherDisplay:10.37,2013-06-09 11:10:00,
2013-06-09 03:15:00,52.9,39.8,30.25,West,268,0.0,0.0,61,0.00,CLR,,0.00,WeatherDisplay:10.37,2013-06-09 11:15:00,
2013-06-09 03:20:00,52.5,40.7,30.25,West,271,0.0,0.0,64,0.00,CLR,,0.00,WeatherDisplay:10.37,2013-06-09 11:20:00,
2013-06-09 03:25:00,52.3,39.7,30.25,West,269,0.0,0.0,62,0.00,CLR,,0.00,WeatherDisplay:10.37,2013-06-09 11:25:00,
2013-06-09 03:30:00,52.0,39.4,30.25,West,268,0.0,0.0,62,0.00,CLR,,0.00,WeatherDisplay:10.37,2013-06-09 11:30:00,
2013-06-09 03:40:00,51.6,39.4,30.25,West,269,0.0,0.0,63,0.00,CLR,,0.00,WeatherDisplay:10.37,2013-06-09 11:40:00,
2013-06-09 03:45:00,51.3,39.1,30.25,West,267,0.0,0.0,63,0.00,CLR,,0.00,WeatherDisplay:10.37,2013-06-09 11:45:00,
2013-06-09 03:50:00,51.1,38.9,30.25,West,264,0.0,0.0,63,0.00,CLR,,0.00,WeatherDisplay:10.37,2013-06-09 11:50:00,
2013-06-09 03:55:00,50.7,39.0,30.26,WSW,256,0.0,0.0,64,0.00,CLR,,0.00,WeatherDisplay:10.37,2013-06-09 11:55:00,
2013-06-09 04:00:00,50.3,38.6,30.26,WSW,254,0.0,0.0,64,0.00,CLR,,0.00,WeatherDisplay:10.37,2013-06-09 12:00:00,
2013-06-09 04:05:00,49.8,38.5,30.26,West,274,0.0,0.0,65,0.00,CLR,,0.00,WeatherDisplay:10.37,2013-06-09 12:05:00,
2013-06-09 04:10:00,49.3,39.2,30.26,WNW,299,0.0,0.0,68,0.00,CLR,,0.00,WeatherDisplay:10.37,2013-06-09 12:10:00,
2013-06-09 04:15:00,48.9,38.4,30.26,NNW,336,0.0,0.0,67,0.00,CLR,,0.00,WeatherDisplay:10.37,2013-06-09 12:15:00,
2013-06-09 04:25:00,48.4,38.3,30.26,WNW,302,0.0,0.0,68,0.00,CLR,,0.00,WeatherDisplay:10.37,2013-06-09 12:25:00,
2013-06-09 04:30:00,48.0,37.6,30.26,NW,308,0.0,0.0,67,0.00,CLR,,0.00,WeatherDisplay:10.37,2013-06-09 12:30:00,
2013-06-09 04:40:00,47.8,37.8,30.27,NW,324,0.0,0.0,68,0.00,CLR,,0.00,WeatherDisplay:10.37,2013-06-09 12:40:00,
2013-06-09 04:45:00,47.8,37.4,30.27,NNW,331,0.0,0.0,67,0.00,CLR,,0.00,WeatherDisplay:10.37,2013-06-09 12:45:00,
2013-06-09 04:55:00,48.0,38.3,30.27,NW,326,0.0,0.0,69,0.00,CLR,,0.00,WeatherDisplay:10.37,2013-06-09 12:55:00,
2013-06-09 05:00:00,48.0,38.0,30.27,NNW,328,0.0,0.0,68,0.00,CLR,,0.00,WeatherDisplay:10.37,2013-06-09 13:00:00,
2013-06-09 05:05:00,48.1,38.0,30.27,NW,311,0.0,0.0,68,0.00,CLR,,0.00,WeatherDisplay:10.37,2013-06-09 13:05:00,
2013-06-09 05:10:00,48.2,38.1,30.27,WNW,293,0.0,0.0,68,0.00,CLR,,0.00,WeatherDisplay:10.37,2013-06-09 13:10:00,
2013-06-09 05:15:00,48.0,38.0,30.27,West,271,0.0,0.0,68,0.00,CLR,,0.00,WeatherDisplay:10.37,2013-06-09 13:15:00,
2013-06-09 05:25:00,48.0,38.3,30.28,WSW,253,0.0,0.0,69,0.00,CLR,,0.00,WeatherDisplay:10.37,2013-06-09 13:25:00,
2013-06-09 05:30:00,47.8,38.2,30.28,WSW,247,0.0,0.0,69,0.00,CLR,,0.00,WeatherDisplay:10.37,2013-06-09 13:30:00,
2013-06-09 05:40:00,47.7,38.4,30.28,West,274,0.0,0.0,70,0.00,CLR,,0.00,WeatherDisplay:10.37,2013-06-09 13:40:00,
2013-06-09 05:45:00,47.8,38.4,30.28,WNW,289,0.0,0.0,70,0.00,CLR,,0.00,WeatherDisplay:10.37,2013-06-09 13:45:00,
2013-06-09 05:55:00,48.4,38.7,30.28,WNW,290,0.0,0.0,69,0.00,CLR,,0.00,WeatherDisplay:10.37,2013-06-09 13:55:00,
2013-06-09 06:00:00,49.4,39.3,30.28,West,280,0.0,0.0,68,0.00,CLR,,0.00,WeatherDisplay:10.37,2013-06-09 14:00:00,
2013-06-09 06:10:00,51.1,40.9,30.28,West,268,0.0,0.0,68,0.00,CLR,,0.00,WeatherDisplay:10.37,2013-06-09 14:10:00,
2013-06-09 06:15:00,50.5,40.7,30.28,West,279,0.0,0.0,69,0.00,CLR,,0.00,WeatherDisplay:10.37,2013-06-09 14:15:00,
2013-06-09 06:25:00,50.2,39.6,30.28,West,266,0.0,0.0,67,0.00,CLR,,0.00,WeatherDisplay:10.37,2013-06-09 14:25:00,
2013-06-09 06:30:00,50.3,40.1,30.28,WSW,253,0.0,0.0,68,0.00,CLR,,0.00,WeatherDisplay:10.37,2013-06-09 14:30:00,
2013-06-09 06:40:00,50.5,41.1,30.29,WSW,256,0.0,0.0,70,0.00,CLR,,0.00,WeatherDisplay:10.37,2013-06-09 14:40:00,
2013-06-09 06:45:00,50.3,41.2,30.29,West,261,0.0,0.0,71,0.00,CLR,,0.00,WeatherDisplay:10.37,2013-06-09 14:45:00,
2013-06-09 06:55:00,50.7,42.0,30.29,WSW,252,0.0,0.0,72,0.00,CLR,,0.00,WeatherDisplay:10.37,2013-06-09 14:55:00,
2013-06-09 07:00:00,50.5,41.5,30.29,WSW,248,0.0,0.0,71,0.00,CLR,,0.00,WeatherDisplay:10.37,2013-06-09 15:00:00,
2013-06-09 07:10:00,51.6,43.5,30.29,WSW,245,0.0,0.0,74,0.00,CLR,,0.00,WeatherDisplay:10.37,2013-06-09 15:10:00,
2013-06-09 07:15:00,53.0,42.7,30.29,WSW,242,0.0,0.0,68,0.00,CLR,,0.00,WeatherDisplay:10.37,2013-06-09 15:15:00,
2013-06-09 07:25:00,52.7,43.2,30.29,WSW,247,0.0,0.0,70,0.00,CLR,,0.00,WeatherDisplay:10.37,2013-06-09 15:25:00,
2013-06-09 07:30:00,52.5,42.3,30.29,WSW,245,0.0,0.0,68,0.00,CLR,,0.00,WeatherDisplay:10.37,2013-06-09 15:30:00,
2013-06-09 07:40:00,55.2,45.2,30.29,WSW,244,0.0,0.0,69,0.00,CLR,,0.00,WeatherDisplay:10.37,2013-06-09 15:40:00,
2013-06-09 07:45:00,55.9,45.5,30.29,WSW,240,0.0,0.0,68,0.00,CLR,,0.00,WeatherDisplay:10.37,2013-06-09 15:45:00,
2013-06-09 07:55:00,57.4,46.5,30.30,WSW,239,0.0,0.0,67,0.00,CLR,,0.00,WeatherDisplay:10.37,2013-06-09 15:55:00,
2013-06-09 08:00:00,59.1,48.2,30.30,WSW,240,0.0,0.0,67,0.00,CLR,,0.00,WeatherDisplay:10.37,2013-06-09 16:00:00,
2013-06-09 08:10:00,61.7,49.0,30.30,SW,232,0.0,0.0,63,0.00,CLR,,0.00,WeatherDisplay:10.37,2013-06-09 16:10:00,
2013-06-09 08:15:00,62.4,48.8,30.30,SW,227,0.0,0.0,61,0.00,CLR,,0.00,WeatherDisplay:10.37,2013-06-09 16:15:00,
2013-06-09 08:25:00,63.7,49.5,30.30,WSW,244,0.0,0.0,60,0.00,CLR,,0.00,WeatherDisplay:10.37,2013-06-09 16:25:00,
2013-06-09 08:30:00,64.0,49.4,30.30,WSW,251,0.0,0.0,59,0.00,CLR,,0.00,WeatherDisplay:10.37,2013-06-09 16:30:00,
2013-06-09 08:40:00,64.2,48.2,30.30,WSW,256,0.0,0.0,56,0.00,CLR,,0.00,WeatherDisplay:10.37,2013-06-09 16:40:00,
2013-06-09 08:45:00,65.1,49.0,30.30,WSW,258,0.0,0.0,56,0.00,CLR,,0.00,WeatherDisplay:10.37,2013-06-09 16:45:00,
2013-06-09 08:50:00,65.8,49.2,30.30,WSW,253,0.0,0.0,55,0.00,CLR,,0.00,WeatherDisplay:10.37,2013-06-09 16:50:00,
2013-06-09 09:00:00,66.7,49.5,30.30,WSW,246,0.0,0.0,54,0.00,CLR,,0.00,WeatherDisplay:10.37,2013-06-09 17:00:00,
2013-06-09 09:10:00,66.7,49.6,30.30,WSW,250,0.0,0.0,54,0.00,CLR,,0.00,WeatherDisplay:10.37,2013-06-09 17:10:00,
2013-06-09 09:15:00,65.1,47.5,30.30,SW,233,0.0,0.0,53,0.00,CLR,,0.00,WeatherDisplay:10.37,2013-06-09 17:15:00,
2013-06-09 09:20:00,63.9,45.9,30.30,WSW,237,0.0,0.0,52,0.00,CLR,,0.00,WeatherDisplay:10.37,2013-06-09 17:20:00,
2013-06-09 09:25:00,63.3,45.9,30.31,WSW,240,0.0,0.0,53,0.00,CLR,,0.00,WeatherDisplay:10.37,2013-06-09 17:25:00,
2013-06-09 09:30:00,63.2,45.3,30.31,WSW,238,0.0,0.0,52,0.00,CLR,,0.00,WeatherDisplay:10.37,2013-06-09 17:30:00,
2013-06-09 09:35:00,63.1,44.7,30.31,WSW,240,0.0,0.0,51,0.00,CLR,,0.00,WeatherDisplay:10.37,2013-06-09 17:35:00,
2013-06-09 09:40:00,63.1,44.2,30.30,SW,222,0.0,0.0,50,0.00,CLR,,0.00,WeatherDisplay:10.37,2013-06-09 17:40:00,
2013-06-09 09:45:00,64.0,45.0,30.30,SW,227,0.0,0.0,50,0.00,CLR,,0.00,WeatherDisplay:10.37,2013-06-09 17:45:00,
2013-06-09 09:50:00,65.7,46.5,30.30,WSW,243,0.0,0.0,50,0.00,CLR,,0.00,WeatherDisplay:10.37,2013-06-09 17:50:00,
2013-06-09 09:55:00,66.7,46.4,30.30,WSW,238,0.0,0.0,48,0.00,CLR,,0.00,WeatherDisplay:10.37,2013-06-09 17:55:00,
2013-06-09 10:00:00,67.3,46.9,30.30,WSW,251,0.0,0.0,48,0.00,CLR,,0.00,WeatherDisplay:10.37,2013-06-09 18:00:00,
2013-06-09 10:10:00,66.9,46.6,30.30,WSW,247,0.0,0.0,48,0.00,CLR,,0.00,WeatherDisplay:10.37,2013-06-09 18:10:00,
2013-06-09 10:15:00,66.9,46.0,30.30,SW,231,0.0,0.0,47,0.00,CLR,,0.00,WeatherDisplay:10.37,2013-06-09 18:15:00,
2013-06-09 10:20:00,67.0,46.7,30.30,SW,225,0.0,0.0,48,0.00,CLR,,0.00,WeatherDisplay:10.37,2013-06-09 18:20:00,
2013-06-09 10:25:00,67.7,47.3,30.30,SW,230,0.0,0.0,48,0.00,CLR,,0.00,WeatherDisplay:10.37,2013-06-09 18:25:00,
2013-06-09 10:30:00,67.8,46.8,30.30,SSW,213,0.0,0.0,47,0.00,CLR,,0.00,WeatherDisplay:10.37,2013-06-09 18:30:00,
2013-06-09 10:40:00,69.0,47.9,30.30,WSW,237,0.0,0.0,47,0.00,CLR,,0.00,WeatherDisplay:10.37,2013-06-09 18:40:00,
2013-06-09 10:45:00,69.3,47.6,30.30,SW,225,0.0,0.0,46,0.00,CLR,,0.00,WeatherDisplay:10.37,2013-06-09 18:45:00,
2013-06-09 10:55:00,66.2,45.3,30.30,SW,230,0.0,0.0,47,0.00,CLR,,0.00,WeatherDisplay:10.37,2013-06-09 18:55:00,
2013-06-09 11:00:00,64.1,44.0,30.30,SW,230,0.0,0.0,48,0.00,CLR,,0.00,WeatherDisplay:10.37,2013-06-09 19:00:00,
2013-06-09 11:09:00,62.5,42.6,30.30,WSW,247,0.0,0.0,48,0.00,CLR,,0.00,WeatherDisplay:10.37,2013-06-09 19:09:00,
2013-06-09 11:15:00,61.9,42.5,30.30,WSW,243,0.0,0.0,49,0.00,CLR,,0.00,WeatherDisplay:10.37,2013-06-09 19:15:00,
2013-06-09 11:25:00,61.7,42.8,30.30,WSW,241,0.0,0.0,50,0.00,CLR,,0.00,WeatherDisplay:10.37,2013-06-09 19:25:00,
2013-06-09 11:30:00,62.2,43.9,30.30,WSW,248,0.0,0.0,51,0.00,CLR,,0.00,WeatherDisplay:10.37,2013-06-09 19:30:00,
2013-06-09 11:40:00,62.2,42.8,30.30,SW,234,0.0,0.0,49,0.00,CLR,,0.00,WeatherDisplay:10.37,2013-06-09 19:40:00,
2013-06-09 11:45:00,62.2,43.4,30.30,SW,232,0.0,0.0,50,0.00,CLR,,0.00,WeatherDisplay:10.37,2013-06-09 19:45:00,
2013-06-09 11:50:00,62.5,43.1,30.30,SW,230,0.0,0.0,49,0.00,CLR,,0.00,WeatherDisplay:10.37,2013-06-09 19:50:00,
2013-06-09 11:55:00,62.8,43.3,30.30,SW,226,0.0,0.0,49,0.00,CLR,,0.00,WeatherDisplay:10.37,2013-06-09 19:55:00,
2013-06-09 12:00:00,64.4,44.3,30.30,SW,226,0.0,0.0,48,0.00,CLR,,0.00,WeatherDisplay:10.37,2013-06-09 20:00:00,
2013-06-09 12:05:00,66.3,46.0,30.30,WSW,246,0.0,0.0,48,0.00,CLR,,0.00,WeatherDisplay:10.37,2013-06-09 20:05:00,
2013-06-09 12:10:00,67.7,46.7,30.30,SW,233,0.0,0.0,47,0.00,CLR,,0.00,WeatherDisplay:10.37,2013-06-09 20:10:00,
2013-06-09 12:15:00,68.4,47.4,30.30,WSW,238,3.0,0.0,47,0.00,CLR,,0.00,WeatherDisplay:10.37,2013-06-09 20:15:00,
2013-06-09 12:20:00,69.1,48.0,30.30,WSW,241,3.0,0.0,47,0.00,CLR,,0.00,WeatherDisplay:10.37,2013-06-09 20:20:00,
2013-06-09 12:25:00,68.6,48.1,30.30,WSW,245,5.0,0.0,48,0.00,CLR,,0.00,WeatherDisplay:10.37,2013-06-09 20:25:00,
2013-06-09 12:30:00,67.8,46.8,30.30,WSW,247,0.0,0.0,47,0.00,CLR,,0.00,WeatherDisplay:10.37,2013-06-09 20:30:00,
2013-06-09 12:40:00,68.1,46.5,30.30,WSW,255,1.0,0.0,46,0.00,CLR,,0.00,WeatherDisplay:10.37,2013-06-09 20:40:00,
2013-06-09 12:45:00,68.6,47.0,30.30,WSW,255,0.0,0.0,46,0.00,CLR,,0.00,WeatherDisplay:10.37,2013-06-09 20:45:00,
2013-06-09 12:50:00,68.2,46.6,30.30,WSW,252,0.0,0.0,46,0.00,CLR,,0.00,WeatherDisplay:10.37,2013-06-09 20:50:00,
2013-06-09 12:55:00,68.4,47.4,30.30,WSW,240,0.0,0.0,47,0.00,CLR,,0.00,WeatherDisplay:10.37,2013-06-09 20:55:00,
2013-06-09 13:00:00,68.9,47.8,30.30,WSW,251,0.0,0.0,47,0.00,CLR,,0.00,WeatherDisplay:10.37,2013-06-09 21:00:00,
2013-06-09 13:10:00,68.0,47.0,30.30,SW,233,0.0,0.0,47,0.00,CLR,,0.00,WeatherDisplay:10.37,2013-06-09 21:10:00,
2013-06-09 13:15:00,66.9,46.0,30.30,SW,229,0.0,0.0,47,0.00,CLR,,0.00,WeatherDisplay:10.37,2013-06-09 21:15:00,
2013-06-09 13:25:00,65.8,45.5,30.30,WSW,237,0.0,0.0,48,0.00,CLR,,0.00,WeatherDisplay:10.37,2013-06-09 21:25:00,
2013-06-09 13:30:00,65.1,46.0,30.30,SW,225,0.0,0.0,50,0.00,CLR,,0.00,WeatherDisplay:10.37,2013-06-09 21:30:00,
2013-06-09 13:35:00,65.7,45.5,30.30,SW,234,1.0,0.0,48,0.00,CLR,,0.00,WeatherDisplay:10.37,2013-06-09 21:35:00,
2013-06-09 13:40:00,66.4,46.6,30.30,WSW,244,0.0,0.0,49,0.00,CLR,,0.00,WeatherDisplay:10.37,2013-06-09 21:40:00,
2013-06-09 13:45:00,66.5,46.8,30.30,WSW,241,0.0,0.0,49,0.00,CLR,,0.00,WeatherDisplay:10.37,2013-06-09 21:45:00,
2013-06-09 13:54:00,67.6,47.2,30.30,SW,227,0.0,0.0,48,0.00,CLR,,0.00,WeatherDisplay:10.37,2013-06-09 21:54:00,
2013-06-09 14:00:00,67.3,47.0,30.29,WSW,240,0.0,0.0,48,0.00,CLR,,0.00,WeatherDisplay:10.37,2013-06-09 22:00:00,
2013-06-09 14:10:00,66.4,47.2,30.29,SW,224,0.0,0.0,50,0.00,CLR,,0.00,WeatherDisplay:10.37,2013-06-09 22:10:00,
2013-06-09 14:15:00,66.0,46.8,30.29,WSW,244,0.0,0.0,50,0.00,CLR,,0.00,WeatherDisplay:10.37,2013-06-09 22:15:00,
2013-06-09 14:25:00,65.7,46.5,30.29,WSW,254,0.0,0.0,50,0.00,CLR,,0.00,WeatherDisplay:10.37,2013-06-09 22:25:00,
2013-06-09 14:30:00,66.1,46.9,30.29,WSW,250,0.0,0.0,50,0.00,CLR,,0.00,WeatherDisplay:10.37,2013-06-09 22:30:00,
2013-06-09 14:40:00,65.6,46.4,30.30,WSW,257,0.0,0.0,50,0.00,CLR,,0.00,WeatherDisplay:10.37,2013-06-09 22:40:00,
2013-06-09 14:45:00,65.7,46.5,30.29,West,267,0.0,0.0,50,0.00,CLR,,0.00,WeatherDisplay:10.37,2013-06-09 22:45:00,
2013-06-09 14:50:00,65.7,45.4,30.29,WSW,252,0.0,0.0,48,0.00,CLR,,0.00,WeatherDisplay:10.37,2013-06-09 22:50:00,
2013-06-09 14:55:00,65.4,46.2,30.30,WSW,253,0.0,0.0,50,0.00,CLR,,0.00,WeatherDisplay:10.37,2013-06-09 22:55:00,
2013-06-09 15:00:00,64.8,45.7,30.30,WSW,255,0.0,0.0,50,0.00,CLR,,0.00,WeatherDisplay:10.37,2013-06-09 23:00:00,
2013-06-09 15:05:00,64.4,45.3,30.30,WSW,251,0.0,0.0,50,0.00,CLR,,0.00,WeatherDisplay:10.37,2013-06-09 23:05:00,
2013-06-09 15:10:00,64.4,45.9,30.30,West,280,0.0,0.0,51,0.00,CLR,,0.00,WeatherDisplay:10.37,2013-06-09 23:10:00,
2013-06-09 15:15:00,64.6,46.0,30.30,West,259,0.0,0.0,51,0.00,CLR,,0.00,WeatherDisplay:10.37,2013-06-09 23:15:00,
2013-06-09 15:25:00,65.1,46.5,30.29,WSW,246,2.0,0.0,51,0.00,CLR,,0.00,WeatherDisplay:10.37,2013-06-09 23:25:00,
2013-06-09 15:30:00,65.6,46.4,30.30,WSW,239,0.0,0.0,50,0.00,CLR,,0.00,WeatherDisplay:10.37,2013-06-09 23:30:00,
2013-06-09 15:40:00,66.0,46.3,30.30,WSW,237,5.0,0.0,49,0.00,CLR,,0.00,WeatherDisplay:10.37,2013-06-09 23:40:00,
2013-06-09 15:45:00,65.9,46.2,30.30,WSW,247,0.0,0.0,49,0.00,CLR,,0.00,WeatherDisplay:10.37,2013-06-09 23:45:00,
2013-06-09 15:54:00,66.0,45.8,30.30,West,279,1.0,0.0,48,0.00,CLR,,0.00,WeatherDisplay:10.37,2013-06-09 23:54:00,
2013-06-09 16:00:00,65.8,45.6,30.30,West,262,0.0,0.0,48,0.00,CLR,,0.00,WeatherDisplay:10.37,2013-06-10 00:00:00,
2013-06-09 16:10:00,65.5,46.3,30.30,WSW,246,2.0,0.0,50,0.00,CLR,,0.00,WeatherDisplay:10.37,2013-06-10 00:10:00,
2013-06-09 16:15:00,65.7,46.6,30.30,WSW,258,0.0,0.0,50,0.00,CLR,,0.00,WeatherDisplay:10.37,2013-06-10 00:15:00,
2013-06-09 16:20:00,65.8,46.1,30.30,West,268,0.0,0.0,49,0.00,CLR,,0.00,WeatherDisplay:10.37,2013-06-10 00:20:00,
2013-06-09 16:25:00,65.4,47.3,30.30,WSW,258,0.0,0.0,52,0.00,CLR,,0.00,WeatherDisplay:10.37,2013-06-10 00:25:00,
2013-06-09 16:30:00,64.0,47.0,30.30,West,264,0.0,0.0,54,0.00,CLR,,0.00,WeatherDisplay:10.37,2013-06-10 00:30:00,
2013-06-09 16:35:00,62.4,47.4,30.30,WSW,254,0.0,0.0,58,0.00,CLR,,0.00,WeatherDisplay:10.37,2013-06-10 00:35:00,
2013-06-09 16:40:00,60.4,46.9,30.30,WSW,249,0.0,0.0,61,0.00,CLR,,0.00,WeatherDisplay:10.37,2013-06-10 00:40:00,
2013-06-09 16:45:00,59.1,45.2,30.30,WSW,258,0.0,0.0,60,0.00,CLR,,0.00,WeatherDisplay:10.37,2013-06-10 00:45:00,
2013-06-09 16:55:00,60.1,49.1,30.30,WSW,253,0.0,0.0,67,0.00,CLR,,0.00,WeatherDisplay:10.37,2013-06-10 00:55:00,
2013-06-09 17:00:00,62.8,49.6,30.30,SW,233,0.0,0.0,62,0.00,CLR,,0.00,WeatherDisplay:10.37,2013-06-10 01:00:00,
2013-06-09 17:10:00,63.6,49.5,30.30,WSW,246,0.0,0.0,60,0.00,CLR,,0.00,WeatherDisplay:10.37,2013-06-10 01:10:00,
2013-06-09 17:15:00,64.5,49.8,30.30,WSW,240,0.0,0.0,59,0.00,CLR,,0.00,WeatherDisplay:10.37,2013-06-10 01:15:00,
2013-06-09 17:25:00,67.1,50.9,30.29,WSW,240,0.0,0.0,56,0.00,CLR,,0.00,WeatherDisplay:10.37,2013-06-10 01:25:00,
2013-06-09 17:30:00,67.3,51.0,30.30,WSW,238,2.0,0.0,56,0.00,CLR,,0.00,WeatherDisplay:10.37,2013-06-10 01:30:00,
2013-06-09 17:40:00,66.7,50.5,30.29,WSW,244,0.0,0.0,56,0.00,CLR,,0.00,WeatherDisplay:10.37,2013-06-10 01:40:00,
2013-06-09 17:45:00,65.3,48.7,30.30,WSW,253,0.0,0.0,55,0.00,CLR,,0.00,WeatherDisplay:10.37,2013-06-10 01:45:00,
2013-06-09 17:50:00,63.2,48.2,30.29,WSW,249,1.0,0.0,58,0.00,CLR,,0.00,WeatherDisplay:10.37,2013-06-10 01:50:00,
2013-06-09 18:00:00,58.2,46.5,30.30,WNW,288,0.0,0.0,65,0.00,CLR,,0.00,WeatherDisplay:10.37,2013-06-10 02:00:00,
2013-06-09 18:10:00,55.9,45.5,30.30,WSW,256,0.0,0.0,68,0.00,CLR,,0.00,WeatherDisplay:10.37,2013-06-10 02:10:00,
2013-06-09 18:15:00,55.0,45.4,30.30,WSW,258,0.0,0.0,70,0.00,CLR,,0.00,WeatherDisplay:10.37,2013-06-10 02:15:00,
2013-06-09 18:25:00,55.0,45.0,30.30,WSW,256,0.0,0.0,69,0.00,CLR,,0.00,WeatherDisplay:10.37,2013-06-10 02:25:00,
2013-06-09 18:30:00,55.2,45.2,30.30,WSW,241,0.0,0.0,69,0.00,CLR,,0.00,WeatherDisplay:10.37,2013-06-10 02:30:00,
2013-06-09 18:35:00,55.6,45.2,30.30,WSW,245,0.0,0.0,68,0.00,CLR,,0.00,WeatherDisplay:10.37,2013-06-10 02:35:00,
2013-06-09 18:40:00,55.9,45.9,30.30,WSW,246,0.0,0.0,69,0.00,CLR,,0.00,WeatherDisplay:10.37,2013-06-10 02:40:00,
2013-06-09 18:45:00,56.4,46.4,30.30,WSW,251,0.0,0.0,69,0.00,CLR,,0.00,WeatherDisplay:10.37,2013-06-10 02:45:00,
2013-06-09 18:55:00,57.1,46.2,30.30,WSW,245,0.0,0.0,67,0.00,CLR,,0.00,WeatherDisplay:10.37,2013-06-10 02:55:00,
2013-06-09 19:00:00,57.4,46.9,30.30,WSW,249,0.0,0.0,68,0.00,CLR,,0.00,WeatherDisplay:10.37,2013-06-10 03:00:00,
2013-06-09 19:10:00,57.9,47.4,30.29,WSW,248,0.0,0.0,68,0.00,CLR,,0.00,WeatherDisplay:10.37,2013-06-10 03:10:00,
2013-06-09 19:15:00,58.3,47.8,30.29,WSW,245,0.0,0.0,68,0.00,CLR,,0.00,WeatherDisplay:10.37,2013-06-10 03:15:00,
2013-06-09 19:25:00,59.2,48.3,30.29,WSW,244,1.0,0.0,67,0.00,CLR,,0.00,WeatherDisplay:10.37,2013-06-10 03:25:00,
2013-06-09 19:30:00,59.8,48.0,30.29,WSW,245,0.0,0.0,65,0.00,CLR,,0.00,WeatherDisplay:10.37,2013-06-10 03:30:00,
2013-06-09 19:40:00,60.6,48.8,30.28,WSW,252,0.0,0.0,65,0.00,CLR,,0.00,WeatherDisplay:10.37,2013-06-10 03:40:00,
2013-06-09 19:45:00,61.3,49.0,30.28,WSW,250,0.0,0.0,64,0.00,CLR,,0.00,WeatherDisplay:10.37,2013-06-10 03:45:00,
2013-06-09 19:50:00,61.9,49.6,30.28,SW,236,0.0,0.0,64,0.00,CLR,,0.00,WeatherDisplay:10.37,2013-06-10 03:50:00,
2013-06-09 19:55:00,62.2,49.1,30.28,SW,229,0.0,0.0,62,0.00,CLR,,0.00,WeatherDisplay:10.37,2013-06-10 03:55:00,
2013-06-09 20:00:00,61.9,49.1,30.28,WSW,249,0.0,0.0,63,0.00,CLR,,0.00,WeatherDisplay:10.37,2013-06-10 04:00:00,
2013-06-09 20:05:00,61.3,48.2,30.28,WSW,249,0.0,0.0,62,0.00,CLR,,0.00,WeatherDisplay:10.37,2013-06-10 04:05:00,
2013-06-09 20:10:00,60.6,47.9,30.28,West,260,0.0,0.0,63,0.00,CLR,,0.00,WeatherDisplay:10.37,2013-06-10 04:10:00,
2013-06-09 20:15:00,60.0,46.9,30.28,WSW,238,0.0,0.0,62,0.00,CLR,,0.00,WeatherDisplay:10.37,2013-06-10 04:15:00,
2013-06-09 20:20:00,59.6,46.1,30.28,WSW,241,0.0,0.0,61,0.00,CLR,,0.00,WeatherDisplay:10.37,2013-06-10 04:20:00,
2013-06-09 20:25:00,59.5,46.5,30.28,WSW,251,0.0,0.0,62,0.00,CLR,,0.00,WeatherDisplay:10.37,2013-06-10 04:25:00,
2013-06-09 20:30:00,59.5,45.6,30.28,WSW,249,0.0,0.0,60,0.00,CLR,,0.00,WeatherDisplay:10.37,2013-06-10 04:30:00,
2013-06-09 20:40:00,59.2,45.7,30.28,WSW,246,0.0,0.0,61,0.00,CLR,,0.00,WeatherDisplay:10.37,2013-06-10 04:40:00,
2013-06-09 20:45:00,59.2,45.7,30.28,WSW,239,0.0,0.0,61,0.00,CLR,,0.00,WeatherDisplay:10.37,2013-06-10 04:45:00,
2013-06-09 20:55:00,58.9,44.2,30.28,SW,236,0.0,0.0,58,0.00,CLR,,0.00,WeatherDisplay:10.37,2013-06-10 04:55:00,
2013-06-09 21:00:00,58.8,44.1,30.28,WSW,255,0.0,0.0,58,0.00,CLR,,0.00,WeatherDisplay:10.37,2013-06-10 05:00:00,
2013-06-09 21:10:00,58.6,43.9,30.28,West,264,0.0,0.0,58,0.00,CLR,,0.00,WeatherDisplay:10.37,2013-06-10 05:10:00,
2013-06-09 21:15:00,58.3,43.6,30.28,WSW,257,0.0,0.0,58,0.00,CLR,,0.00,WeatherDisplay:10.37,2013-06-10 05:15:00,
2013-06-09 21:20:00,57.9,45.0,30.28,WSW,242,0.0,0.0,62,0.00,CLR,,0.00,WeatherDisplay:10.37,2013-06-10 05:20:00,
2013-06-09 21:25:00,57.9,43.2,30.28,WSW,246,0.0,0.0,58,0.00,CLR,,0.00,WeatherDisplay:10.37,2013-06-10 05:25:00,
2013-06-09 21:30:00,57.9,43.7,30.28,WSW,237,0.0,0.0,59,0.00,CLR,,0.00,WeatherDisplay:10.37,2013-06-10 05:30:00,
2013-06-09 21:35:00,58.0,43.3,30.28,WSW,243,0.0,0.0,58,0.00,CLR,,0.00,WeatherDisplay:10.37,2013-06-10 05:35:00,
2013-06-09 21:40:00,58.3,43.6,30.28,WSW,257,0.0,0.0,58,0.00,CLR,,0.00,WeatherDisplay:10.37,2013-06-10 05:40:00,
2013-06-09 21:45:00,58.3,45.3,30.28,WSW,256,0.0,0.0,62,0.00,CLR,,0.00,WeatherDisplay:10.37,2013-06-10 05:45:00,
2013-06-09 21:55:00,58.0,43.7,30.28,WSW,251,0.0,0.0,59,0.00,CLR,,0.00,WeatherDisplay:10.37,2013-06-10 05:55:00,
2013-06-09 22:00:00,57.9,44.1,30.28,WSW,253,0.0,0.0,60,0.00,CLR,,0.00,WeatherDisplay:10.37,2013-06-10 06:00:00,
2013-06-09 22:10:00,57.7,44.4,30.28,WSW,245,0.0,0.0,61,0.00,CLR,,0.00,WeatherDisplay:10.37,2013-06-10 06:10:00,
2013-06-09 22:15:00,57.7,43.9,30.28,WSW,243,0.0,0.0,60,0.00,CLR,,0.00,WeatherDisplay:10.37,2013-06-10 06:15:00,
2013-06-09 22:20:00,57.6,44.2,30.28,WSW,245,0.0,0.0,61,0.00,CLR,,0.00,WeatherDisplay:10.37,2013-06-10 06:20:00,
2013-06-09 22:25:00,57.5,44.1,30.29,WSW,257,0.0,0.0,61,0.00,CLR,,0.00,WeatherDisplay:10.37,2013-06-10 06:25:00,
2013-06-09 22:30:00,57.4,44.0,30.29,WSW,257,0.0,0.0,61,0.00,CLR,,0.00,WeatherDisplay:10.37,2013-06-10 06:30:00,
2013-06-09 22:40:00,57.4,44.5,30.29,WSW,238,0.0,0.0,62,0.00,CLR,,0.00,WeatherDisplay:10.37,2013-06-10 06:40:00,
2013-06-09 22:45:00,57.4,44.5,30.29,WSW,240,0.0,0.0,62,0.00,CLR,,0.00,WeatherDisplay:10.37,2013-06-10 06:45:00,
2013-06-09 22:55:00,57.2,44.7,30.29,WSW,243,0.0,0.0,63,0.00,CLR,,0.00,WeatherDisplay:10.37,2013-06-10 06:55:00,
2013-06-09 23:00:00,57.0,44.1,30.29,WSW,242,0.0,0.0,62,0.00,CLR,,0.00,WeatherDisplay:10.37,2013-06-10 07:00:00,
2013-06-09 23:05:00,57.0,45.0,30.29,WSW,251,0.0,0.0,64,0.00,CLR,,0.00,WeatherDisplay:10.37,2013-06-10 07:05:00,
2013-06-09 23:10:00,57.0,43.7,30.29,West,260,0.0,0.0,61,0.00,CLR,,0.00,WeatherDisplay:10.37,2013-06-10 07:10:00,
2013-06-09 23:15:00,57.0,43.7,30.30,WSW,255,0.0,0.0,61,0.00,CLR,,0.00,WeatherDisplay:10.37,2013-06-10 07:15:00,
2013-06-09 23:25:00,56.5,45.7,30.30,West,270,0.0,0.0,67,0.00,CLR,,0.00,WeatherDisplay:10.37,2013-06-10 07:25:00,
2013-06-09 23:30:00,56.1,43.7,30.30,West,270,0.0,0.0,63,0.00,CLR,,0.00,WeatherDisplay:10.37,2013-06-10 07:30:00,
2013-06-09 23:40:00,55.7,43.3,30.30,WNW,285,0.0,0.0,63,0.00,CLR,,0.00,WeatherDisplay:10.37,2013-06-10 07:40:00,
2013-06-09 23:45:00,55.2,42.8,30.31,West,277,0.0,0.0,63,0.00,CLR,,0.00,WeatherDisplay:10.37,2013-06-10 07:45:00,
2013-06-09 23:55:00,54.7,42.7,30.31,West,268,0.0,0.0,64,0.00,CLR,,0.00,WeatherDisplay:10.37,2013-06-10 07:55:00,